createdAt,value
2022-07-29T00:00:11.860Z,57.49
2022-07-29T00:01:18.890Z,57.29
2022-07-29T00:02:11.869Z,57.49
2022-07-29T00:03:11.914Z,57.41
2022-07-29T00:04:12.016Z,57.38
2022-07-29T00:06:16.324Z,57.21
2022-07-29T00:07:11.906Z,57.21
2022-07-29T00:08:12.723Z,57.25
2022-07-29T00:09:11.879Z,57.24
2022-07-29T00:10:11.895Z,56.77
2022-07-29T00:11:11.877Z,56.77
2022-07-29T00:12:11.889Z,56.80
2022-07-29T00:13:11.902Z,56.58
2022-07-29T00:14:12.096Z,56.34
2022-07-29T00:15:11.879Z,56.19
2022-07-29T00:16:11.917Z,56.17
2022-07-29T00:17:11.908Z,55.87
2022-07-29T00:18:11.906Z,55.98
2022-07-29T00:19:11.930Z,55.81
2022-07-29T00:20:11.908Z,55.69
2022-07-29T00:21:11.887Z,55.38
2022-07-29T00:22:11.897Z,55.42
2022-07-29T00:23:13.546Z,56.09
2022-07-29T00:24:12.028Z,56.09
2022-07-29T00:25:11.938Z,56.16
2022-07-29T00:26:11.921Z,56.29
2022-07-29T00:27:11.944Z,56.52
2022-07-29T00:28:11.925Z,56.74
2022-07-29T00:29:33.686Z,56.96
2022-07-29T00:30:11.947Z,57.26
2022-07-29T00:31:12.012Z,57.29
2022-07-29T00:32:11.943Z,57.57
2022-07-29T00:33:11.945Z,57.77
2022-07-29T00:34:12.104Z,57.83
2022-07-29T00:35:11.941Z,57.77
2022-07-29T00:36:11.958Z,57.77
2022-07-29T00:37:11.958Z,57.63
2022-07-29T00:38:11.945Z,57.58
2022-07-29T00:39:11.946Z,57.51
2022-07-29T00:40:11.946Z,57.41
2022-07-29T00:41:11.973Z,57.29
2022-07-29T00:42:12.018Z,57.25
2022-07-29T00:43:16.510Z,57.25
2022-07-29T00:45:11.999Z,57.16
2022-07-29T00:46:12.030Z,57.00
2022-07-29T00:49:12.105Z,56.48
2022-07-29T00:50:11.979Z,56.49
2022-07-29T00:51:11.990Z,56.39
2022-07-29T00:52:11.988Z,56.36
2022-07-29T00:53:11.994Z,56.22
2022-07-29T00:54:12.154Z,55.99
2022-07-29T00:55:11.988Z,55.93
2022-07-29T00:56:12.039Z,55.72
2022-07-29T00:57:12.022Z,55.72
2022-07-29T00:59:12.050Z,55.68
2022-07-29T01:00:12.056Z,55.77
2022-07-29T01:01:12.092Z,55.77
2022-07-29T01:02:12.149Z,56.04
2022-07-29T01:03:12.019Z,56.11
2022-07-29T01:04:12.141Z,56.24
2022-07-29T01:05:12.031Z,55.96
2022-07-29T01:06:12.020Z,55.78
2022-07-29T01:07:12.043Z,55.99
2022-07-29T01:08:12.027Z,56.15
2022-07-29T01:09:12.042Z,56.35
2022-07-29T01:10:12.045Z,56.46
2022-07-29T01:11:12.070Z,56.47
2022-07-29T01:12:12.063Z,56.48
2022-07-29T01:13:12.041Z,56.44
2022-07-29T01:14:12.170Z,56.38
2022-07-29T01:15:12.047Z,56.24
2022-07-29T01:16:12.143Z,55.99
2022-07-29T01:17:12.058Z,56.09
2022-07-29T01:18:12.049Z,56.06
2022-07-29T01:19:12.088Z,56.08
2022-07-29T01:20:16.727Z,56.40
2022-07-29T01:21:12.070Z,56.40
2022-07-29T01:22:12.056Z,56.41
2022-07-29T01:23:12.080Z,56.19
2022-07-29T01:24:12.234Z,56.10
2022-07-29T01:25:12.068Z,56.07
2022-07-29T01:26:12.086Z,56.00
2022-07-29T01:27:12.105Z,55.92
2022-07-29T01:28:12.092Z,55.45
2022-07-29T01:29:12.129Z,55.55
2022-07-29T01:30:13.034Z,55.20
2022-07-29T01:31:23.764Z,54.96
2022-07-29T01:32:20.287Z,54.83
2022-07-29T01:33:12.098Z,54.95
2022-07-29T01:34:12.248Z,54.87
2022-07-29T01:35:12.131Z,54.89
2022-07-29T01:36:12.107Z,54.98
2022-07-29T01:37:12.129Z,55.05
2022-07-29T01:38:12.100Z,54.98
2022-07-29T01:39:12.109Z,54.93
2022-07-29T01:40:12.135Z,54.92
2022-07-29T01:41:12.115Z,54.95
2022-07-29T01:42:12.128Z,54.93
2022-07-29T01:43:12.121Z,54.87
2022-07-29T01:44:12.343Z,54.74
2022-07-29T01:45:12.148Z,54.77
2022-07-29T01:46:12.169Z,54.77
2022-07-29T01:47:12.139Z,54.85
2022-07-29T01:48:12.129Z,54.99
2022-07-29T01:52:12.150Z,54.96
2022-07-29T01:53:12.149Z,54.89
2022-07-29T01:55:12.166Z,55.15
2022-07-29T01:56:12.153Z,55.18
2022-07-29T01:57:16.971Z,55.38
2022-07-29T01:58:12.162Z,55.38
2022-07-29T01:59:12.208Z,55.52
2022-07-29T02:00:12.171Z,55.59
2022-07-29T02:01:12.189Z,55.58
2022-07-29T02:02:12.216Z,55.61
2022-07-29T02:03:12.180Z,55.79
2022-07-29T02:04:12.335Z,55.96
2022-07-29T02:05:12.241Z,56.21
2022-07-29T02:06:12.189Z,56.45
2022-07-29T02:07:12.185Z,56.76
2022-07-29T02:08:12.195Z,56.80
2022-07-29T02:09:12.201Z,56.86
2022-07-29T02:10:12.221Z,56.91
2022-07-29T02:11:12.212Z,56.82
2022-07-29T02:12:12.201Z,56.82
2022-07-29T02:13:12.200Z,56.90
2022-07-29T02:14:12.258Z,56.89
2022-07-29T02:15:12.216Z,56.87
2022-07-29T02:16:12.291Z,56.84
2022-07-29T02:17:12.206Z,56.67
2022-07-29T02:18:12.254Z,56.41
2022-07-29T02:19:12.210Z,56.41
2022-07-29T02:22:12.222Z,56.13
2022-07-29T02:23:12.245Z,56.13
2022-07-29T02:24:12.354Z,56.14
2022-07-29T02:25:14.177Z,56.12
2022-07-29T02:26:12.224Z,56.08
2022-07-29T02:27:12.236Z,56.05
2022-07-29T02:28:12.235Z,56.02
2022-07-29T02:29:12.233Z,56.03
2022-07-29T02:31:12.341Z,55.90
2022-07-29T02:32:12.272Z,55.99
2022-07-29T02:33:12.284Z,55.99
2022-07-29T02:34:17.658Z,56.25
2022-07-29T02:35:12.254Z,56.25
2022-07-29T02:36:12.270Z,56.33
2022-07-29T02:37:12.260Z,56.47
2022-07-29T02:39:12.276Z,56.68
2022-07-29T02:40:12.270Z,56.62
2022-07-29T02:41:12.286Z,56.63
2022-07-29T02:42:12.294Z,56.83
2022-07-29T02:43:12.270Z,57.04
2022-07-29T02:44:12.510Z,57.28
2022-07-29T02:45:12.298Z,57.28
2022-07-29T02:46:14.815Z,57.42
2022-07-29T02:47:12.307Z,57.67
2022-07-29T02:48:12.289Z,58.02
2022-07-29T02:49:12.366Z,58.17
2022-07-29T02:50:12.283Z,58.19
2022-07-29T02:51:15.129Z,58.12
2022-07-29T02:52:12.325Z,58.24
2022-07-29T02:55:12.325Z,58.03
2022-07-29T02:57:12.327Z,58.11
2022-07-29T02:58:12.315Z,58.00
2022-07-29T02:59:12.317Z,57.96
2022-07-29T03:01:12.407Z,57.47
2022-07-29T03:02:12.447Z,57.93
2022-07-29T03:03:12.324Z,58.26
2022-07-29T03:04:12.564Z,58.69
2022-07-29T03:05:12.398Z,59.01
2022-07-29T03:06:37.559Z,59.42
2022-07-29T03:08:12.391Z,59.41
2022-07-29T03:09:13.509Z,59.41
2022-07-29T03:10:13.453Z,59.27
2022-07-29T03:11:17.331Z,58.99
2022-07-29T03:12:12.338Z,59.01
2022-07-29T03:13:12.347Z,58.91
2022-07-29T03:14:12.565Z,58.79
2022-07-29T03:15:12.358Z,58.63
2022-07-29T03:16:12.398Z,58.26
2022-07-29T03:17:12.376Z,58.03
2022-07-29T03:18:12.378Z,57.81
2022-07-29T03:19:12.384Z,57.67
2022-07-29T03:20:12.375Z,57.61
2022-07-29T03:21:12.387Z,57.55
2022-07-29T03:22:12.380Z,57.30
2022-07-29T03:23:12.381Z,57.43
2022-07-29T03:24:12.493Z,57.28
2022-07-29T03:25:12.398Z,56.82
2022-07-29T03:26:12.383Z,56.99
2022-07-29T03:27:12.376Z,56.51
2022-07-29T03:28:12.390Z,56.84
2022-07-29T03:30:12.409Z,57.24
2022-07-29T03:31:12.443Z,57.52
2022-07-29T03:32:12.406Z,58.02
2022-07-29T03:33:13.433Z,57.90
2022-07-29T03:35:12.403Z,58.15
2022-07-29T03:36:12.404Z,58.35
2022-07-29T03:37:12.419Z,58.59
2022-07-29T03:38:12.398Z,58.67
2022-07-29T03:39:12.420Z,58.85
2022-07-29T03:41:12.439Z,59.83
2022-07-29T03:42:12.438Z,59.44
2022-07-29T03:43:12.427Z,59.58
2022-07-29T03:44:12.772Z,59.38
2022-07-29T03:45:12.698Z,59.87
2022-07-29T03:46:12.504Z,59.87
2022-07-29T03:47:12.439Z,60.11
2022-07-29T03:48:12.447Z,60.05
2022-07-29T03:49:12.583Z,60.00
2022-07-29T03:50:12.462Z,60.60
2022-07-29T03:51:12.455Z,60.60
2022-07-29T03:52:12.453Z,60.31
2022-07-29T03:53:12.463Z,60.33
2022-07-29T03:54:12.461Z,60.59
2022-07-29T03:55:12.500Z,60.90
2022-07-29T03:56:12.445Z,60.90
2022-07-29T03:57:12.458Z,61.48
2022-07-29T03:58:12.467Z,61.87
2022-07-29T03:59:12.468Z,62.28
2022-07-29T04:00:12.509Z,63.29
2022-07-29T04:01:12.528Z,63.21
2022-07-29T04:02:12.580Z,62.92
2022-07-29T04:03:12.521Z,63.42
2022-07-29T04:04:12.783Z,63.18
2022-07-29T04:05:12.480Z,63.21
2022-07-29T04:06:12.504Z,62.79
2022-07-29T04:07:12.486Z,62.95
2022-07-29T04:08:12.493Z,62.49
2022-07-29T04:09:12.495Z,62.32
2022-07-29T04:11:12.513Z,62.24
2022-07-29T04:12:12.513Z,62.48
2022-07-29T04:13:12.552Z,62.93
2022-07-29T04:15:12.532Z,63.21
2022-07-29T04:16:12.544Z,62.81
2022-07-29T04:17:12.516Z,63.04
2022-07-29T04:18:12.523Z,63.24
2022-07-29T04:19:12.534Z,62.59
2022-07-29T04:20:12.528Z,62.61
2022-07-29T04:21:12.521Z,62.45
2022-07-29T04:22:12.947Z,61.89
2022-07-29T04:23:12.548Z,61.89
2022-07-29T04:24:12.885Z,61.65
2022-07-29T04:25:12.532Z,61.37
2022-07-29T04:26:12.561Z,61.35
2022-07-29T04:27:12.544Z,61.79
2022-07-29T04:28:12.571Z,60.99
2022-07-29T04:29:12.556Z,60.75
2022-07-29T04:30:12.551Z,60.64
2022-07-29T04:32:12.554Z,60.15
2022-07-29T04:35:12.580Z,60.48
2022-07-29T04:36:28.852Z,60.63
2022-07-29T04:37:12.568Z,60.80
2022-07-29T04:38:15.812Z,60.80
2022-07-29T04:39:12.593Z,60.38
2022-07-29T04:40:12.571Z,60.39
2022-07-29T04:41:12.578Z,60.66
2022-07-29T04:42:12.582Z,60.18
2022-07-29T04:43:12.616Z,60.12
2022-07-29T04:44:12.774Z,60.10
2022-07-29T04:45:12.589Z,59.92
2022-07-29T04:46:12.707Z,60.30
2022-07-29T04:47:12.577Z,60.58
2022-07-29T04:48:12.606Z,60.87
2022-07-29T04:49:12.700Z,60.57
2022-07-29T04:50:12.611Z,60.79
2022-07-29T04:51:12.624Z,60.80
2022-07-29T04:53:12.623Z,60.73
2022-07-29T04:54:12.882Z,60.82
2022-07-29T04:55:12.610Z,60.45
2022-07-29T04:56:12.671Z,60.44
2022-07-29T04:57:12.606Z,60.52
2022-07-29T04:58:12.620Z,60.41
2022-07-29T04:59:13.201Z,60.22
2022-07-29T05:00:12.623Z,60.22
2022-07-29T05:01:12.679Z,60.04
2022-07-29T05:03:12.695Z,59.47
2022-07-29T05:04:12.986Z,59.71
2022-07-29T05:05:12.630Z,59.60
2022-07-29T05:06:12.655Z,59.53
2022-07-29T05:07:12.647Z,59.53
2022-07-29T05:08:12.640Z,59.30
2022-07-29T05:09:12.712Z,59.13
2022-07-29T05:10:12.654Z,58.76
2022-07-29T05:11:14.924Z,58.92
2022-07-29T05:12:12.647Z,59.04
2022-07-29T05:13:12.660Z,59.29
2022-07-29T05:14:13.032Z,59.51
2022-07-29T05:15:12.662Z,59.51
2022-07-29T05:16:12.869Z,59.67
2022-07-29T05:17:12.690Z,59.82
2022-07-29T05:18:12.699Z,59.47
2022-07-29T05:19:14.614Z,59.47
2022-07-29T05:20:12.704Z,59.54
2022-07-29T05:21:12.665Z,59.24
2022-07-29T05:22:12.750Z,59.01
2022-07-29T05:23:12.680Z,59.01
2022-07-29T05:24:13.001Z,58.45
2022-07-29T05:25:12.697Z,58.68
2022-07-29T05:26:12.695Z,58.66
2022-07-29T05:27:12.697Z,58.71
2022-07-29T05:28:12.715Z,58.60
2022-07-29T05:29:43.770Z,58.63
2022-07-29T05:31:12.852Z,58.63
2022-07-29T05:32:12.716Z,58.74
2022-07-29T05:33:35.771Z,59.35
2022-07-29T05:34:12.796Z,59.74
2022-07-29T05:36:13.362Z,59.98
2022-07-29T05:38:12.726Z,60.04
2022-07-29T05:39:12.765Z,60.44
2022-07-29T05:40:12.778Z,60.58
2022-07-29T05:41:12.731Z,60.58
2022-07-29T05:42:12.786Z,60.76
2022-07-29T05:43:12.775Z,61.21
2022-07-29T05:44:12.965Z,61.21
2022-07-29T05:45:12.749Z,61.12
2022-07-29T05:46:12.831Z,61.13
2022-07-29T05:47:12.744Z,60.83
2022-07-29T05:48:12.749Z,60.95
2022-07-29T05:49:12.825Z,60.44
2022-07-29T05:50:12.747Z,60.62
2022-07-29T05:51:12.758Z,60.44
2022-07-29T05:52:12.755Z,59.65
2022-07-29T05:53:19.898Z,60.03
2022-07-29T05:54:13.010Z,59.71
2022-07-29T05:55:12.819Z,60.42
2022-07-29T05:56:12.756Z,60.42
2022-07-29T05:57:12.814Z,61.17
2022-07-29T05:58:12.802Z,61.50
2022-07-29T05:59:15.540Z,61.46
2022-07-29T06:01:12.866Z,61.26
2022-07-29T06:02:12.807Z,60.84
2022-07-29T06:03:12.815Z,60.84
2022-07-29T06:04:13.081Z,60.79
2022-07-29T06:05:16.255Z,60.09
2022-07-29T06:06:12.798Z,59.53
2022-07-29T06:07:12.803Z,59.56
2022-07-29T06:08:12.813Z,59.36
2022-07-29T06:09:13.822Z,59.25
2022-07-29T06:10:12.820Z,58.92
2022-07-29T06:11:12.843Z,58.57
2022-07-29T06:12:12.885Z,58.76
2022-07-29T06:13:13.547Z,58.87
2022-07-29T06:14:13.092Z,58.87
2022-07-29T06:15:12.839Z,59.03
2022-07-29T06:16:12.849Z,59.02
2022-07-29T06:17:12.834Z,58.90
2022-07-29T06:18:12.861Z,58.68
2022-07-29T06:19:12.839Z,58.45
2022-07-29T06:20:12.841Z,58.67
2022-07-29T06:21:12.873Z,58.42
2022-07-29T06:22:12.867Z,58.05
2022-07-29T06:23:12.867Z,58.03
2022-07-29T06:24:13.137Z,58.03
2022-07-29T06:25:12.890Z,58.54
2022-07-29T06:26:12.866Z,58.54
2022-07-29T06:27:12.892Z,58.81
2022-07-29T06:28:12.873Z,58.94
2022-07-29T06:29:12.882Z,58.94
2022-07-29T06:30:12.901Z,59.16
2022-07-29T06:31:13.006Z,59.25
2022-07-29T06:32:12.867Z,59.33
2022-07-29T06:33:12.879Z,59.32
2022-07-29T06:35:37.996Z,59.40
2022-07-29T06:36:12.873Z,59.50
2022-07-29T06:37:15.532Z,59.71
2022-07-29T06:38:30.488Z,60.05
2022-07-29T06:39:13.101Z,60.17
2022-07-29T06:40:12.889Z,60.07
2022-07-29T06:41:12.892Z,60.27
2022-07-29T06:42:12.896Z,60.17
2022-07-29T06:43:12.946Z,59.83
2022-07-29T06:44:13.214Z,59.83
2022-07-29T06:45:12.902Z,59.62
2022-07-29T06:46:12.971Z,59.55
2022-07-29T06:47:12.890Z,59.39
2022-07-29T06:48:12.936Z,59.12
2022-07-29T06:49:12.973Z,59.12
2022-07-29T06:50:13.768Z,59.81
2022-07-29T06:51:12.906Z,59.81
2022-07-29T06:52:12.898Z,60.16
2022-07-29T06:53:12.927Z,61.71
2022-07-29T06:54:12.954Z,61.71
2022-07-29T06:55:12.914Z,61.90
2022-07-29T06:56:12.940Z,61.27
2022-07-29T06:57:12.933Z,61.62
2022-07-29T06:58:12.917Z,61.80
2022-07-29T06:59:12.932Z,61.62
2022-07-29T07:00:12.955Z,62.17
2022-07-29T07:01:12.957Z,62.16
2022-07-29T07:02:12.981Z,62.65
2022-07-29T07:03:12.942Z,64.41
2022-07-29T07:04:13.084Z,64.20
2022-07-29T07:05:13.035Z,65.51
2022-07-29T07:06:15.101Z,66.27
2022-07-29T07:07:12.978Z,66.67
2022-07-29T07:08:12.966Z,67.47
2022-07-29T07:09:12.973Z,67.92
2022-07-29T07:10:13.065Z,69.51
2022-07-29T07:11:12.980Z,69.46
2022-07-29T07:12:12.978Z,69.46
2022-07-29T07:13:12.971Z,68.97
2022-07-29T07:14:12.985Z,66.96
2022-07-29T07:15:12.967Z,67.60
2022-07-29T07:16:13.042Z,67.61
2022-07-29T07:17:12.978Z,65.72
2022-07-29T07:18:12.979Z,65.65
2022-07-29T07:19:13.003Z,66.28
2022-07-29T07:20:13.262Z,66.07
2022-07-29T07:21:12.992Z,65.94
2022-07-29T07:22:13.005Z,66.15
2022-07-29T07:23:13.007Z,65.70
2022-07-29T07:24:13.227Z,67.34
2022-07-29T07:25:12.997Z,65.19
2022-07-29T07:26:13.013Z,64.36
2022-07-29T07:27:13.981Z,66.71
2022-07-29T07:28:13.015Z,66.71
2022-07-29T07:29:13.044Z,66.08
2022-07-29T07:30:13.016Z,65.42
2022-07-29T07:32:13.058Z,64.72
2022-07-29T07:33:13.031Z,64.41
2022-07-29T07:34:13.456Z,65.73
2022-07-29T07:35:13.030Z,65.77
2022-07-29T07:36:13.043Z,65.36
2022-07-29T07:37:13.022Z,65.14
2022-07-29T07:38:13.051Z,66.65
2022-07-29T07:39:13.028Z,66.67
2022-07-29T07:40:13.041Z,66.76
2022-07-29T07:41:13.044Z,67.44
2022-07-29T07:42:13.070Z,68.07
2022-07-29T07:43:13.050Z,68.71
2022-07-29T07:44:16.122Z,68.59
2022-07-29T07:45:16.132Z,68.95
2022-07-29T07:46:13.168Z,68.85
2022-07-29T07:47:13.050Z,69.90
2022-07-29T07:48:13.061Z,68.90
2022-07-29T07:49:13.135Z,68.43
2022-07-29T07:50:18.394Z,68.82
2022-07-29T07:51:13.075Z,69.49
2022-07-29T07:52:13.065Z,70.47
2022-07-29T07:53:13.075Z,70.02
2022-07-29T07:54:13.438Z,70.60
2022-07-29T07:55:13.085Z,70.30
2022-07-29T07:56:13.157Z,69.59
2022-07-29T07:57:13.075Z,68.93
2022-07-29T07:58:13.097Z,69.40
2022-07-29T07:59:13.105Z,69.48
2022-07-29T08:00:13.095Z,68.64
2022-07-29T08:01:13.207Z,68.43
2022-07-29T08:02:13.196Z,68.13
2022-07-29T08:03:17.058Z,68.08
2022-07-29T08:04:14.622Z,66.90
2022-07-29T08:06:13.106Z,67.37
2022-07-29T08:08:13.110Z,66.60
2022-07-29T08:09:28.254Z,66.57
2022-07-29T08:10:13.139Z,66.59
2022-07-29T08:11:13.117Z,66.70
2022-07-29T08:12:13.104Z,66.20
2022-07-29T08:14:13.801Z,66.17
2022-07-29T08:15:13.135Z,65.23
2022-07-29T08:16:13.217Z,65.36
2022-07-29T08:17:13.180Z,66.54
2022-07-29T08:18:13.148Z,67.15
2022-07-29T08:19:13.156Z,66.66
2022-07-29T08:20:13.171Z,67.75
2022-07-29T08:21:15.117Z,68.71
2022-07-29T08:22:13.149Z,68.52
2022-07-29T08:23:13.150Z,69.34
2022-07-29T08:24:13.153Z,67.79
2022-07-29T08:25:13.151Z,68.26
2022-07-29T08:26:13.158Z,68.70
2022-07-29T08:27:40.611Z,68.39
2022-07-29T08:28:13.153Z,67.22
2022-07-29T08:30:13.203Z,66.81
2022-07-29T08:31:13.179Z,67.33
2022-07-29T08:32:13.307Z,67.16
2022-07-29T08:34:13.191Z,67.15
2022-07-29T08:35:13.189Z,67.06
2022-07-29T08:36:13.173Z,66.44
2022-07-29T08:37:13.187Z,67.97
2022-07-29T08:38:13.191Z,67.92
2022-07-29T08:39:13.204Z,68.84
2022-07-29T08:40:13.257Z,68.93
2022-07-29T08:41:14.413Z,70.68
2022-07-29T08:42:13.197Z,70.68
2022-07-29T08:43:13.202Z,70.11
2022-07-29T08:44:13.220Z,69.99
2022-07-29T08:45:13.209Z,70.27
2022-07-29T08:46:13.267Z,70.18
2022-07-29T08:47:13.217Z,69.85
2022-07-29T08:48:13.209Z,69.16
2022-07-29T08:49:13.280Z,68.69
2022-07-29T08:50:13.248Z,66.74
2022-07-29T08:51:13.218Z,66.74
2022-07-29T08:52:13.238Z,67.46
2022-07-29T08:53:13.229Z,68.00
2022-07-29T08:54:13.246Z,67.99
2022-07-29T08:55:13.232Z,68.43
2022-07-29T08:56:13.225Z,68.12
2022-07-29T08:57:13.240Z,69.20
2022-07-29T08:58:13.245Z,68.66
2022-07-29T08:59:13.227Z,65.75
2022-07-29T09:00:13.269Z,66.37
2022-07-29T09:01:13.910Z,64.41
2022-07-29T09:02:13.265Z,65.35
2022-07-29T09:03:13.293Z,64.09
2022-07-29T09:04:13.245Z,64.10
2022-07-29T09:05:13.284Z,65.37
2022-07-29T09:06:13.277Z,63.62
2022-07-29T09:07:13.269Z,64.02
2022-07-29T09:08:13.253Z,63.70
2022-07-29T09:09:13.255Z,63.26
2022-07-29T09:10:13.313Z,61.87
2022-07-29T09:11:13.277Z,61.87
2022-07-29T09:12:13.281Z,62.08
2022-07-29T09:13:13.260Z,60.91
2022-07-29T09:14:13.281Z,62.30
2022-07-29T09:15:13.285Z,60.99
2022-07-29T09:16:22.404Z,59.50
2022-07-29T09:17:13.326Z,56.25
2022-07-29T09:18:20.350Z,57.79
2022-07-29T09:19:13.290Z,57.79
2022-07-29T09:20:13.314Z,55.79
2022-07-29T09:21:13.299Z,55.84
2022-07-29T09:22:13.298Z,56.23
2022-07-29T09:24:13.306Z,56.48
2022-07-29T09:25:13.315Z,56.63
2022-07-29T09:26:13.319Z,56.59
2022-07-29T09:27:13.317Z,56.58
2022-07-29T09:28:13.333Z,56.22
2022-07-29T09:30:13.388Z,55.95
2022-07-29T09:31:13.367Z,55.95
2022-07-29T09:32:13.326Z,54.83
2022-07-29T09:33:13.337Z,54.83
2022-07-29T09:34:13.331Z,54.57
2022-07-29T09:35:13.343Z,54.49
2022-07-29T09:36:13.326Z,53.31
2022-07-29T09:37:13.354Z,54.30
2022-07-29T09:38:13.361Z,53.92
2022-07-29T09:39:13.335Z,53.18
2022-07-29T09:40:13.370Z,54.48
2022-07-29T09:41:13.346Z,54.61
2022-07-29T09:42:13.361Z,54.00
2022-07-29T09:43:13.384Z,53.02
2022-07-29T09:44:13.350Z,53.79
2022-07-29T09:45:13.359Z,53.80
2022-07-29T09:46:13.374Z,54.03
2022-07-29T09:47:13.426Z,53.41
2022-07-29T09:48:13.360Z,50.66
2022-07-29T09:49:13.478Z,52.50
2022-07-29T09:50:13.404Z,52.55
2022-07-29T09:51:17.028Z,53.53
2022-07-29T09:52:13.382Z,53.98
2022-07-29T09:53:13.393Z,53.19
2022-07-29T09:54:13.380Z,51.83
2022-07-29T09:55:18.186Z,50.49
2022-07-29T09:56:13.407Z,50.49
2022-07-29T09:57:13.427Z,50.00
2022-07-29T09:59:13.390Z,50.90
2022-07-29T10:00:13.428Z,51.79
2022-07-29T10:01:13.493Z,51.23
2022-07-29T10:02:13.406Z,49.10
2022-07-29T10:03:13.466Z,49.31
2022-07-29T10:04:13.411Z,48.91
2022-07-29T10:05:13.413Z,48.90
2022-07-29T10:06:13.418Z,48.71
2022-07-29T10:07:13.418Z,47.72
2022-07-29T10:08:13.512Z,48.37
2022-07-29T10:09:13.432Z,46.60
2022-07-29T10:10:13.425Z,46.52
2022-07-29T10:11:13.452Z,45.85
2022-07-29T10:12:13.437Z,45.29
2022-07-29T10:13:15.730Z,45.13
2022-07-29T10:14:13.437Z,43.33
2022-07-29T10:15:13.452Z,44.14
2022-07-29T10:16:13.995Z,44.88
2022-07-29T10:17:13.439Z,44.99
2022-07-29T10:18:13.461Z,44.02
2022-07-29T10:19:13.453Z,44.02
2022-07-29T10:20:16.367Z,44.10
2022-07-29T10:21:35.154Z,44.87
2022-07-29T10:22:14.996Z,44.60
2022-07-29T10:23:13.455Z,43.88
2022-07-29T10:24:14.876Z,43.88
2022-07-29T10:25:13.467Z,44.05
2022-07-29T10:26:13.477Z,43.59
2022-07-29T10:27:13.485Z,43.34
2022-07-29T10:28:16.425Z,44.07
2022-07-29T10:29:13.472Z,44.43
2022-07-29T10:30:13.489Z,45.27
2022-07-29T10:31:13.521Z,46.00
2022-07-29T10:32:15.051Z,44.81
2022-07-29T10:33:13.496Z,44.81
2022-07-29T10:34:13.497Z,45.32
2022-07-29T10:35:13.515Z,43.11
2022-07-29T10:36:14.309Z,43.11
2022-07-29T10:37:13.515Z,44.40
2022-07-29T10:38:16.524Z,44.46
2022-07-29T10:39:15.449Z,44.79
2022-07-29T10:40:13.520Z,44.72
2022-07-29T10:41:13.583Z,41.62
2022-07-29T10:42:13.522Z,41.62
2022-07-29T10:43:13.525Z,42.51
2022-07-29T10:44:17.464Z,41.73
2022-07-29T10:45:13.532Z,41.24
2022-07-29T10:46:13.568Z,41.79
2022-07-29T10:47:13.533Z,41.64
2022-07-29T10:48:13.535Z,40.87
2022-07-29T10:49:15.207Z,40.28
2022-07-29T10:50:17.293Z,41.16
2022-07-29T10:51:13.562Z,41.59
2022-07-29T10:52:13.537Z,41.19
2022-07-29T10:53:14.231Z,40.59
2022-07-29T10:54:13.543Z,40.42
2022-07-29T10:55:13.538Z,40.74
2022-07-29T10:56:17.395Z,39.66
2022-07-29T10:57:13.542Z,39.44
2022-07-29T10:58:13.554Z,38.79
2022-07-29T10:59:13.564Z,39.09
2022-07-29T11:00:13.617Z,37.45
2022-07-29T11:01:13.585Z,37.12
2022-07-29T11:02:36.512Z,36.88
2022-07-29T11:03:13.587Z,37.90
2022-07-29T11:04:13.573Z,37.45
2022-07-29T11:05:13.583Z,36.14
2022-07-29T11:06:13.616Z,36.40
2022-07-29T11:07:13.587Z,37.36
2022-07-29T11:08:16.499Z,38.47
2022-07-29T11:09:15.293Z,38.21
2022-07-29T11:10:13.856Z,38.21
2022-07-29T11:11:15.804Z,39.05
2022-07-29T11:12:13.593Z,37.93
2022-07-29T11:13:13.609Z,38.22
2022-07-29T11:14:13.592Z,38.82
2022-07-29T11:15:13.586Z,39.09
2022-07-29T11:16:13.619Z,39.09
2022-07-29T11:17:13.963Z,39.14
2022-07-29T11:18:15.097Z,38.72
2022-07-29T11:19:13.905Z,38.80
2022-07-29T11:20:13.619Z,38.93
2022-07-29T11:21:13.616Z,37.91
2022-07-29T11:22:16.670Z,38.38
2022-07-29T11:23:13.629Z,38.42
2022-07-29T11:24:13.617Z,39.19
2022-07-29T11:25:13.644Z,38.81
2022-07-29T11:26:13.656Z,39.28
2022-07-29T11:27:13.671Z,39.58
2022-07-29T11:28:13.639Z,39.32
2022-07-29T11:29:13.674Z,39.11
2022-07-29T11:30:14.562Z,39.11
2022-07-29T11:31:13.650Z,39.53
2022-07-29T11:32:18.080Z,39.52
2022-07-29T11:33:13.645Z,39.83
2022-07-29T11:34:13.649Z,40.18
2022-07-29T11:35:17.221Z,39.65
2022-07-29T11:36:16.911Z,40.28
2022-07-29T11:37:13.683Z,40.24
2022-07-29T11:38:13.660Z,39.61
2022-07-29T11:39:13.653Z,39.90
2022-07-29T11:40:13.676Z,39.43
2022-07-29T11:41:13.650Z,39.16
2022-07-29T11:43:13.685Z,39.71
2022-07-29T11:44:13.685Z,39.96
2022-07-29T11:46:15.528Z,38.95
2022-07-29T11:47:13.691Z,38.95
2022-07-29T11:49:13.712Z,39.10
2022-07-29T11:50:13.760Z,39.18
2022-07-29T11:51:13.703Z,38.16
2022-07-29T11:52:13.772Z,39.32
2022-07-29T11:54:13.689Z,39.62
2022-07-29T11:55:13.697Z,40.19
2022-07-29T11:56:16.423Z,40.32
2022-07-29T11:57:13.715Z,39.88
2022-07-29T11:58:13.729Z,40.64
2022-07-29T12:00:14.577Z,39.46
2022-07-29T12:01:13.742Z,39.37
2022-07-29T12:03:13.769Z,40.07
2022-07-29T12:04:13.756Z,40.20
2022-07-29T12:05:14.483Z,40.22
2022-07-29T12:06:13.801Z,40.11
2022-07-29T12:07:15.558Z,40.28
2022-07-29T12:08:14.609Z,40.06
2022-07-29T12:09:14.712Z,40.83
2022-07-29T12:10:19.505Z,40.33
2022-07-29T12:11:13.746Z,39.74
2022-07-29T12:12:13.802Z,39.96
2022-07-29T12:13:13.757Z,39.96
2022-07-29T12:14:13.753Z,39.97
2022-07-29T12:15:13.773Z,39.62
2022-07-29T12:16:14.776Z,40.59
2022-07-29T12:17:13.777Z,40.10
2022-07-29T12:18:13.767Z,40.10
2022-07-29T12:19:13.789Z,39.50
2022-07-29T12:21:13.758Z,40.18
2022-07-29T12:23:16.138Z,39.64
2022-07-29T12:24:13.777Z,39.64
2022-07-29T12:25:32.869Z,40.06
2022-07-29T12:26:25.346Z,40.34
2022-07-29T12:28:14.125Z,40.60
2022-07-29T12:29:15.622Z,40.00
2022-07-29T12:30:13.793Z,40.51
2022-07-29T12:31:13.890Z,40.79
2022-07-29T12:32:14.568Z,40.63
2022-07-29T12:33:13.809Z,40.54
2022-07-29T12:35:14.019Z,41.28
2022-07-29T12:36:17.686Z,41.46
2022-07-29T12:37:13.811Z,41.71
2022-07-29T12:38:13.821Z,42.27
2022-07-29T12:39:13.860Z,42.69
2022-07-29T12:40:13.814Z,43.61
2022-07-29T12:41:13.828Z,44.55
2022-07-29T12:42:15.057Z,45.00
2022-07-29T12:43:13.837Z,45.10
2022-07-29T12:44:13.835Z,46.32
2022-07-29T12:45:13.860Z,46.19
2022-07-29T12:46:13.974Z,46.61
2022-07-29T12:47:13.853Z,46.92
2022-07-29T12:48:13.844Z,46.87
2022-07-29T12:49:13.922Z,47.25
2022-07-29T12:50:13.851Z,46.72
2022-07-29T12:51:13.858Z,47.67
2022-07-29T12:52:13.845Z,47.92
2022-07-29T12:53:13.860Z,48.19
2022-07-29T12:54:13.862Z,48.33
2022-07-29T12:55:13.896Z,47.90
2022-07-29T12:56:33.110Z,48.18
2022-07-29T12:57:20.064Z,48.82
2022-07-29T12:58:13.881Z,48.96
2022-07-29T12:59:14.366Z,48.96
2022-07-29T13:00:15.987Z,48.67
2022-07-29T13:01:17.061Z,48.67
2022-07-29T13:02:13.946Z,49.64
2022-07-29T13:03:13.873Z,50.20
2022-07-29T13:04:13.875Z,50.39
2022-07-29T13:05:13.890Z,50.37
2022-07-29T13:06:13.903Z,50.20
2022-07-29T13:07:14.614Z,50.10
2022-07-29T13:08:21.917Z,49.51
2022-07-29T13:09:13.900Z,50.12
2022-07-29T13:11:13.898Z,49.67
2022-07-29T13:12:13.909Z,49.72
2022-07-29T13:13:13.915Z,49.35
2022-07-29T13:14:13.903Z,49.20
2022-07-29T13:15:13.907Z,49.05
2022-07-29T13:16:14.035Z,49.33
2022-07-29T13:17:13.928Z,50.71
2022-07-29T13:18:17.698Z,50.71
2022-07-29T13:19:13.932Z,50.22
2022-07-29T13:20:13.941Z,50.25
2022-07-29T13:21:13.942Z,50.30
2022-07-29T13:22:13.950Z,49.87
2022-07-29T13:23:13.950Z,50.03
2022-07-29T13:24:16.868Z,49.79
2022-07-29T13:25:13.930Z,49.47
2022-07-29T13:26:13.933Z,49.71
2022-07-29T13:27:13.944Z,50.45
2022-07-29T13:28:13.956Z,50.71
2022-07-29T13:29:13.959Z,54.74
2022-07-29T13:30:13.994Z,53.88
2022-07-29T13:31:14.119Z,53.88
2022-07-29T13:32:13.962Z,55.62
2022-07-29T13:33:13.965Z,55.62
2022-07-29T13:34:13.972Z,57.87
2022-07-29T13:35:13.964Z,58.24
2022-07-29T13:36:13.966Z,59.15
2022-07-29T13:37:16.207Z,58.92
2022-07-29T13:38:13.973Z,58.92
2022-07-29T13:39:13.965Z,59.34
2022-07-29T13:40:13.982Z,61.62
2022-07-29T13:41:14.000Z,61.63
2022-07-29T13:42:13.992Z,61.26
2022-07-29T13:43:13.990Z,59.64
2022-07-29T13:44:14.002Z,59.96
2022-07-29T13:45:14.024Z,60.88